Time;durP1;ratioP1;P1;durP2;ratioP2;P2;SDS_P1;SDS_P2;PMS_P1;PMS_P2;Temp;Humidity;BMP_temperature;BMP_pressure;BME280_temperature;BME280_humidity;BME280_pressure;Samples;Min_cycle;Max_cycle;Signal;HPM_P1;HPM_P2
2023/12/11 00:01:39;;;;;;;;;;;;;;;11.42;100.00;99526.25;5014741;28;833;-81
2023/12/11 00:04:05;;;;;;;;;;;;;;;11.31;100.00;99538.13;5015057;28;881;-81
2023/12/11 00:06:31;;;;;;;;;;;;;;;11.47;100.00;99535.47;4999845;28;1202;-81
2023/12/11 00:08:57;;;;;;;;;;;;;;;11.55;100.00;99545.44;4998910;28;860;-81
2023/12/11 00:11:23;;;;;;;;;;;;;;;11.51;100.00;99551.28;5014454;28;844;-81
2023/12/11 00:13:49;;;;;;;;;;;;;;;11.51;100.00;99552.13;4998495;28;807;-81
2023/12/11 00:16:17;;;;;;;;;;;;;;;11.52;100.00;99558.34;4999914;28;1276;-81
2023/12/11 00:18:43;;;;;;;;;;;;;;;11.61;100.00;99557.38;5015296;28;1894;-82
2023/12/11 00:21:09;;;;;;;;;;;;;;;11.53;100.00;99555.50;4999896;28;820;-82
2023/12/11 00:23:35;;;;;;;;;;;;;;;11.47;100.00;99556.13;5014917;28;880;-82
2023/12/11 00:26:02;;;;;;;;;;;;;;;11.58;100.00;99558.53;4998214;28;1217;-82
2023/12/11 00:28:28;;;;;;;;;;;;;;;11.55;100.00;99564.22;5014532;28;902;-81
2023/12/11 00:30:54;;;;;;;;;;;;;;;11.56;100.00;99562.38;5000437;28;828;-81
2023/12/11 00:33:20;;;;;;;;;;;;;;;11.65;100.00;99567.63;4999728;28;828;-81
2023/12/11 00:35:46;;;;;;;;;;;;;;;11.66;100.00;99577.38;4998132;28;1209;-82
2023/12/11 00:38:12;;;;;;;;;;;;;;;11.72;100.00;99576.72;5014609;28;878;-82
2023/12/11 00:40:38;;;;;;;;;;;;;;;11.68;100.00;99572.66;5014421;28;1936;-82
2023/12/11 00:43:04;;;;;;;;;;;;;;;11.50;100.00;99585.34;4998415;28;814;-81
2023/12/11 00:45:30;;;;;;;;;;;;;;;11.50;100.00;99577.28;4997848;28;1241;-81
2023/12/11 00:47:56;;;;;;;;;;;;;;;11.60;100.00;99575.34;4998559;28;849;-81
2023/12/11 00:50:22;;;;;;;;;;;;;;;11.68;100.00;99575.34;4999863;28;915;-81
2023/12/11 00:52:48;;;;;;;;;;;;;;;11.70;100.00;99573.38;4998792;28;846;-81
2023/12/11 00:55:14;;;;;;;;;;;;;;;11.63;100.00;99580.38;5014016;28;1300;-82
2023/12/11 00:57:40;;;;;;;;;;;;;;;11.64;100.00;99581.22;4998529;28;939;-81
2023/12/11 01:00:07;;;;;;;;;;;;;;;11.73;100.00;99581.09;4998300;28;1882;-81
2023/12/11 01:02:33;;;;;;;;;;;;;;;11.75;100.00;99581.78;5014056;28;877;-81
2023/12/11 01:04:58;;;;;;;;;;;;;;;11.68;100.00;99579.88;4998787;28;1206;-81
2023/12/11 01:07:24;;;;;;;;;;;;;;;11.72;100.00;99586.63;4999186;28;808;-81
2023/12/11 01:09:50;;;;;;;;;;;;;;;11.70;100.00;99584.13;5013281;28;798;-82
2023/12/11 01:12:16;;;;;;;;;;;;;;;11.74;100.00;99584.63;4999163;28;832;-82
2023/12/11 01:14:42;;;;;;;;;;;;;;;11.68;100.00;99594.16;4998345;28;907;-81
2023/12/11 01:17:08;;;;;;;;;;;;;;;11.70;100.00;99586.81;4998974;28;1155;-81
2023/12/11 01:19:34;;;;;;;;;;;;;;;11.69;100.00;99595.00;4997496;28;1947;-82
2023/12/11 01:22:00;;;;;;;;;;;;;;;11.69;100.00;99598.53;4998671;28;815;-82
2023/12/11 01:24:26;;;;;;;;;;;;;;;11.58;100.00;99590.75;4998702;28;892;-82
2023/12/11 01:26:52;;;;;;;;;;;;;;;11.72;100.00;99598.22;4998140;28;1256;-82
2023/12/11 01:29:18;;;;;;;;;;;;;;;11.56;100.00;99598.13;5013939;28;810;-81
2023/12/11 01:31:44;;;;;;;;;;;;;;;11.58;100.00;99604.19;4998747;28;809;-82
2023/12/11 01:34:10;;;;;;;;;;;;;;;11.64;100.00;99600.88;4998456;28;813;-81
2023/12/11 01:36:36;;;;;;;;;;;;;;;11.58;100.00;99604.19;4998181;28;1205;-81
2023/12/11 01:39:02;;;;;;;;;;;;;;;11.64;100.00;99616.13;4998645;28;1961;-81
2023/12/11 01:41:28;;;;;;;;;;;;;;;11.54;100.00;99605.50;4998241;28;887;-82
2023/12/11 01:43:55;;;;;;;;;;;;;;;11.61;100.00;99609.25;5013206;28;811;-82
2023/12/11 01:46:24;;;;;;;;;;;;;;;11.67;100.00;99613.13;4997845;28;1218;-82
2023/12/11 01:48:52;;;;;;;;;;;;;;;11.64;100.00;99611.59;4998356;28;801;-81
2023/12/11 01:51:19;;;;;;;;;;;;;;;11.65;100.00;99607.06;4998302;28;788;-82
2023/12/11 01:53:48;;;;;;;;;;;;;;;11.76;100.00;99607.63;4998645;28;792;-82
2023/12/11 01:56:17;;;;;;;;;;;;;;;11.75;100.00;99614.00;4997264;28;1182;-82
2023/12/11 01:58:44;;;;;;;;;;;;;;;11.81;100.00;99611.72;4998797;28;805;-81
2023/12/11 02:01:11;;;;;;;;;;;;;;;11.81;100.00;99609.88;4998828;28;1953;-81
2023/12/11 02:03:37;;;;;;;;;;;;;;;11.78;100.00;99612.84;4998881;28;891;-82
2023/12/11 02:06:04;;;;;;;;;;;;;;;11.79;100.00;99617.19;4997526;28;1194;-82
2023/12/11 02:08:30;;;;;;;;;;;;;;;11.76;100.00;99618.38;4998660;28;895;-81
2023/12/11 02:10:56;;;;;;;;;;;;;;;11.64;100.00;99627.72;4998654;28;895;-82
2023/12/11 02:13:22;;;;;;;;;;;;;;;11.79;100.00;99625.25;4999356;28;797;-81
2023/12/11 02:15:50;;;;;;;;;;;;;;;11.85;100.00;99627.34;4997329;28;1256;-81
2023/12/11 02:18:16;;;;;;;;;;;;;;;11.82;100.00;99622.31;4998505;28;829;-82
2023/12/11 02:20:44;;;;;;;;;;;;;;;11.86;100.00;99612.06;4998045;28;1862;-81
2023/12/11 02:23:21;;;;;;;;;;;;;;;11.87;100.00;99611.06;4998194;28;841;-81
2023/12/11 02:25:59;;;;;;;;;;;;;;;11.80;100.00;99618.06;4997749;28;1210;-81
2023/12/11 02:28:25;;;;;;;;;;;;;;;11.86;100.00;99612.06;4998395;28;522;-82
2023/12/11 02:30:51;;;;;;;;;;;;;;;11.87;100.00;99613.75;4998805;28;840;-81
2023/12/11 02:33:17;;;;;;;;;;;;;;;11.89;100.00;99612.56;4998459;28;817;-82
2023/12/11 02:35:43;;;;;;;;;;;;;;;11.85;100.00;99613.06;4997643;28;1284;-82
2023/12/11 02:38:09;;;;;;;;;;;;;;;11.83;100.00;99607.88;4998819;28;896;-81
2023/12/11 02:40:35;;;;;;;;;;;;;;;11.76;100.00;99607.63;4997736;28;1959;-81
2023/12/11 02:43:02;;;;;;;;;;;;;;;11.85;100.00;99607.69;4997788;28;884;-81
2023/12/11 02:45:28;;;;;;;;;;;;;;;11.90;100.00;99598.16;4997206;28;1186;-81
2023/12/11 02:48:02;;;;;;;;;;;;;;;11.77;100.00;99598.56;5012681;28;791;-81
2023/12/11 02:50:31;;;;;;;;;;;;;;;11.86;100.00;99588.72;4996814;28;808;-81
2023/12/11 02:52:59;;;;;;;;;;;;;;;11.77;100.00;99593.19;4997682;28;891;-81
2023/12/11 02:55:25;;;;;;;;;;;;;;;11.87;100.00;99576.13;4997005;28;1174;-81
2023/12/11 02:57:58;;;;;;;;;;;;;;;11.92;100.00;99587.25;5012259;28;801;-81
2023/12/11 03:00:25;;;;;;;;;;;;;;;11.81;100.00;99580.31;4996262;28;1895;-81
2023/12/11 03:02:51;;;;;;;;;;;;;;;11.82;100.00;99582.00;5012708;28;853;-81
2023/12/11 03:05:17;;;;;;;;;;;;;;;11.72;100.00;99575.88;4997217;28;1269;-81
2023/12/11 03:07:43;;;;;;;;;;;;;;;11.78;100.00;99580.59;5015433;28;926;-81
2023/12/11 03:10:09;;;;;;;;;;;;;;;11.76;100.00;99572.69;5000164;28;842;-81
2023/12/11 03:12:35;;;;;;;;;;;;;;;11.75;100.00;99575.56;5001422;28;749;-82
2023/12/11 03:15:04;;;;;;;;;;;;;;;11.77;100.00;99578.91;5015368;28;1237;-82
2023/12/11 03:17:30;;;;;;;;;;;;;;;11.69;100.00;99589.63;5001814;28;883;-81
2023/12/11 03:19:56;;;;;;;;;;;;;;;11.63;100.00;99580.38;5015951;28;1871;-81
2023/12/11 03:22:25;;;;;;;;;;;;;;;11.67;100.00;99584.41;4999861;28;953;-82
2023/12/11 03:24:52;;;;;;;;;;;;;;;11.72;100.00;99582.09;4999131;28;1229;-81
2023/12/11 03:27:20;;;;;;;;;;;;;;;11.77;100.00;99578.91;5015826;28;854;-82
2023/12/11 03:29:47;;;;;;;;;;;;;;;11.66;100.00;99574.69;5015480;28;852;-81
2023/12/11 03:32:13;;;;;;;;;;;;;;;11.82;100.00;99570.41;5015625;28;905;-81
2023/12/11 03:34:39;;;;;;;;;;;;;;;11.87;100.00;99573.44;5015062;28;911;-82
2023/12/11 03:37:05;;;;;;;;;;;;;;;11.87;100.00;99560.84;5000687;28;1178;-81
2023/12/11 03:39:31;;;;;;;;;;;;;;;11.88;100.00;99559.00;4999240;28;1895;-81
2023/12/11 03:41:57;;;;;;;;;;;;;;;11.86;100.00;99563.69;5000636;28;808;-82
2023/12/11 03:44:24;;;;;;;;;;;;;;;11.87;100.00;99562.69;5000191;28;800;-81
2023/12/11 03:46:50;;;;;;;;;;;;;;;11.87;100.00;99560.84;5000566;28;1276;-82
2023/12/11 03:49:17;;;;;;;;;;;;;;;11.88;100.00;99556.31;5001055;28;805;-81
2023/12/11 03:51:43;;;;;;;;;;;;;;;11.80;100.00;99558.97;5015249;28;921;-81
2023/12/11 03:54:09;;;;;;;;;;;;;;;11.70;100.00;99551.88;5000337;28;895;-82
2023/12/11 03:56:35;;;;;;;;;;;;;;;11.75;100.00;99548.69;5014690;28;1303;-81
2023/12/11 03:59:01;;;;;;;;;;;;;;;11.80;100.00;99540.16;4998926;28;857;-81
2023/12/11 04:01:27;;;;;;;;;;;;;;;11.81;100.00;99542.72;5014895;28;1894;-81
2023/12/11 04:03:54;;;;;;;;;;;;;;;11.85;100.00;99540.53;5015198;28;792;-81
2023/12/11 04:06:20;;;;;;;;;;;;;;;11.83;100.00;99542.53;4999934;28;1609;-81
2023/12/11 04:08:46;;;;;;;;;;;;;;;11.83;100.00;99534.47;5000049;28;839;-82
2023/12/11 04:11:12;;;;;;;;;;;;;;;11.81;100.00;99531.13;4999537;28;813;-81
2023/12/11 04:13:38;;;;;;;;;;;;;;;11.87;100.00;99535.81;4999902;28;871;-81
2023/12/11 04:16:05;;;;;;;;;;;;;;;11.87;100.00;99522.38;5000775;28;1201;-81
2023/12/11 04:18:32;;;;;;;;;;;;;;;11.83;100.00;99534.47;4998664;28;860;-81
2023/12/11 04:20:58;;;;;;;;;;;;;;;11.79;100.00;99520.47;5001031;28;1950;-81
2023/12/11 04:23:24;;;;;;;;;;;;;;;11.86;100.00;99529.63;5016167;28;899;-81
2023/12/11 04:25:53;;;;;;;;;;;;;;;11.87;100.00;99533.13;4998252;28;1213;-81
2023/12/11 04:28:18;;;;;;;;;;;;;;;11.82;100.00;99524.75;5001543;28;799;-81
2023/12/11 04:30:45;;;;;;;;;;;;;;;11.82;100.00;99525.59;5000867;28;792;-81
2023/12/11 04:33:11;;;;;;;;;;;;;;;11.87;100.00;99515.16;5000846;28;840;-81
2023/12/11 04:35:37;;;;;;;;;;;;;;;11.86;100.00;99521.56;5000166;28;1189;-81
2023/12/11 04:38:03;;;;;;;;;;;;;;;11.89;100.00;99513.16;4999560;28;767;-81
2023/12/11 04:40:30;;;;;;;;;;;;;;;11.89;100.00;99506.94;5000858;28;1929;-81
2023/12/11 04:42:55;;;;;;;;;;;;;;;11.91;100.00;99505.78;5015124;28;953;-81
2023/12/11 04:45:21;;;;;;;;;;;;;;;11.84;100.00;99509.28;4999943;28;1249;-81
2023/12/11 04:47:47;;;;;;;;;;;;;;;11.84;100.00;99504.75;5000647;28;899;-81
2023/12/11 04:50:13;;;;;;;;;;;;;;;11.83;100.00;99500.41;5000463;28;887;-81
2023/12/11 04:52:39;;;;;;;;;;;;;;;11.83;100.00;99504.94;4998651;28;878;-81
2023/12/11 04:55:05;;;;;;;;;;;;;;;11.86;100.00;99499.22;5014326;28;1295;-82
2023/12/11 04:57:31;;;;;;;;;;;;;;;11.87;100.00;99496.34;5015031;28;842;-82
2023/12/11 04:59:57;;;;;;;;;;;;;;;11.89;100.00;99496.19;5000520;28;1894;-81
2023/12/11 05:02:23;;;;;;;;;;;;;;;11.78;100.00;99495.47;5001188;28;898;-82
2023/12/11 05:04:49;;;;;;;;;;;;;;;11.85;100.00;99497.53;5001063;28;1209;-82
2023/12/11 05:07:15;;;;;;;;;;;;;;;11.83;100.00;99494.19;5000025;28;808;-82
2023/12/11 05:09:41;;;;;;;;;;;;;;;11.83;100.00;99486.13;5001040;28;808;-82
2023/12/11 05:12:07;;;;;;;;;;;;;;;11.81;100.00;99496.19;5000844;28;797;-82
2023/12/11 05:14:33;;;;;;;;;;;;;;;11.81;100.00;99488.97;4998176;28;862;-82
2023/12/11 05:16:59;;;;;;;;;;;;;;;11.83;100.00;99480.75;5015632;28;1177;-81
2023/12/11 05:19:25;;;;;;;;;;;;;;;11.77;100.00;99487.56;4998802;28;919;-81
2023/12/11 05:21:51;;;;;;;;;;;;;;;11.77;100.00;99491.09;5014971;28;1945;-82
2023/12/11 05:24:17;;;;;;;;;;;;;;;11.69;100.00;99488.38;4998902;28;868;-81
2023/12/11 05:26:46;;;;;;;;;;;;;;;11.71;100.00;99482.88;4998443;28;1221;-81
2023/12/11 05:29:12;;;;;;;;;;;;;;;11.70;100.00;99487.41;5015764;28;845;-81
2023/12/11 05:31:38;;;;;;;;;;;;;;;11.70;100.00;99483.84;4999409;28;805;-82
2023/12/11 05:34:04;;;;;;;;;;;;;;;11.73;100.00;99472.81;4999131;28;842;-82
2023/12/11 05:36:30;;;;;;;;;;;;;;;11.78;100.00;99473.97;5014362;28;1217;-81
2023/12/11 05:38:56;;;;;;;;;;;;;;;11.77;100.00;99472.28;4999525;28;975;-82
2023/12/11 05:41:22;;;;;;;;;;;;;;;11.70;100.00;99465.91;5015334;28;1952;-82
2023/12/11 05:43:47;;;;;;;;;;;;;;;11.75;100.00;99468.94;4999789;28;759;-81
2023/12/11 05:46:13;;;;;;;;;;;;;;;11.76;100.00;99462.56;5013945;28;1205;-81
2023/12/11 05:48:39;;;;;;;;;;;;;;;11.78;100.00;99465.06;4999024;28;825;-81
2023/12/11 05:51:06;;;;;;;;;;;;;;;11.72;100.00;99465.75;5014341;28;961;-81
2023/12/11 05:53:32;;;;;;;;;;;;;;;11.72;100.00;99463.91;4999739;28;793;-82
2023/12/11 05:55:58;;;;;;;;;;;;;;;11.72;100.00;99463.91;4999399;28;1280;-81
2023/12/11 05:58:24;;;;;;;;;;;;;;;11.68;100.00;99470.59;5000374;28;659;-81
2023/12/11 06:00:50;;;;;;;;;;;;;;;11.70;100.00;99465.91;5000120;28;1932;-82
2023/12/11 06:03:16;;;;;;;;;;;;;;;11.73;100.00;99460.22;5000300;28;847;-81
2023/12/11 06:05:42;;;;;;;;;;;;;;;11.72;100.00;99460.38;4999431;28;1170;-81
2023/12/11 06:08:08;;;;;;;;;;;;;;;11.77;100.00;99466.09;5000443;28;769;-81
2023/12/11 06:10:34;;;;;;;;;;;;;;;11.70;100.00;99457.00;5014687;28;945;-82
2023/12/11 06:13:00;;;;;;;;;;;;;;;11.73;100.00;99452.16;4999175;28;911;-81
2023/12/11 06:15:26;;;;;;;;;;;;;;;11.67;100.00;99454.66;4999806;28;1190;-81
2023/12/11 06:17:52;;;;;;;;;;;;;;;11.69;100.00;99441.88;4998197;28;769;-82
2023/12/11 06:20:18;;;;;;;;;;;;;;;11.72;100.00;99449.63;4999933;28;1886;-81
2023/12/11 06:22:47;;;;;;;;;;;;;;;11.67;100.00;99447.44;4999886;28;812;-81
2023/12/11 06:25:13;;;;;;;;;;;;;;;11.75;100.00;99457.34;4999466;28;1280;-81
2023/12/11 06:27:39;;;;;;;;;;;;;;;11.77;100.00;99444.59;4999022;28;534;-81
2023/12/11 06:30:07;;;;;;;;;;;;;;;11.72;100.00;99445.09;4997960;28;771;-81
2023/12/11 06:32:34;;;;;;;;;;;;;;;11.74;100.00;99440.41;5014773;28;771;-81
2023/12/11 06:35:00;;;;;;;;;;;;;;;11.72;100.00;99439.72;4999185;28;1319;-80
2023/12/11 06:37:26;;;;;;;;;;;;;;;11.73;100.00;99444.09;5001284;28;797;-81
2023/12/11 06:39:52;;;;;;;;;;;;;;;11.70;100.00;99448.94;5015427;28;801;-81
2023/12/11 06:42:18;;;;;;;;;;;;;;;11.76;100.00;99451.81;5002874;28;1898;-81
2023/12/11 06:44:44;;;;;;;;;;;;;;;11.74;100.00;99442.25;5018790;28;835;-81
2023/12/11 06:47:10;;;;;;;;;;;;;;;11.79;100.00;99447.94;5020258;28;1386;-81
2023/12/11 06:49:37;;;;;;;;;;;;;;;11.82;100.00;99450.34;5019885;28;889;-82
2023/12/11 06:52:03;;;;;;;;;;;;;;;11.75;100.00;99449.28;5004324;28;787;-82
2023/12/11 06:54:29;;;;;;;;;;;;;;;11.77;100.00;99449.97;5002174;28;909;-82
2023/12/11 06:56:55;;;;;;;;;;;;;;;11.78;100.00;99446.28;5005132;28;1245;-82
2023/12/11 06:59:22;;;;;;;;;;;;;;;11.78;100.00;99441.72;5004708;28;832;-82
2023/12/11 07:01:48;;;;;;;;;;;;;;;11.76;100.00;99446.44;5004638;28;1932;-82
2023/12/11 07:04:14;;;;;;;;;;;;;;;11.73;100.00;99448.63;5018465;28;846;-81
2023/12/11 07:06:40;;;;;;;;;;;;;;;11.73;100.00;99446.78;5002726;28;1257;-81
2023/12/11 07:09:07;;;;;;;;;;;;;;;11.76;100.00;99456.34;5000300;28;764;-81
2023/12/11 07:11:33;;;;;;;;;;;;;;;11.82;100.00;99447.66;5002098;28;906;-81
2023/12/11 07:13:59;;;;;;;;;;;;;;;11.78;100.00;99454.31;5001776;28;828;-81
2023/12/11 07:16:25;;;;;;;;;;;;;;;11.78;100.00;99454.31;5016113;28;1217;-82
2023/12/11 07:18:52;;;;;;;;;;;;;;;11.71;100.00;99461.38;5017356;28;881;-81
2023/12/11 07:21:18;;;;;;;;;;;;;;;11.75;100.00;99449.28;5017055;28;1957;-81
2023/12/11 07:23:47;;;;;;;;;;;;;;;11.77;100.00;99453.50;5001878;28;871;-81
2023/12/11 07:26:14;;;;;;;;;;;;;;;11.81;100.00;99456.75;4999605;28;1229;-81
2023/12/11 07:28:39;;;;;;;;;;;;;;;11.80;100.00;99451.50;5016455;28;797;-81
2023/12/11 07:31:06;;;;;;;;;;;;;;;11.78;100.00;99452.47;5001258;28;850;-81
2023/12/11 07:33:32;;;;;;;;;;;;;;;11.83;100.00;99457.41;5001728;28;875;-81
2023/12/11 07:35:58;;;;;;;;;;;;;;;11.70;100.00;99452.50;5000942;28;1285;-81
2023/12/11 07:38:28;;;;;;;;;;;;;;;11.84;100.00;99448.34;5001345;28;926;-81
2023/12/11 07:40:56;;;;;;;;;;;;;;;11.87;100.00;99439.94;5000565;28;1910;-81
2023/12/11 07:43:22;;;;;;;;;;;;;;;11.82;100.00;99442.28;5015871;28;927;-81
2023/12/11 07:45:48;;;;;;;;;;;;;;;11.86;100.00;99438.25;5014897;28;1174;-81
2023/12/11 07:48:14;;;;;;;;;;;;;;;11.83;100.00;99441.28;5000858;28;729;-81
2023/12/11 07:50:40;;;;;;;;;;;;;;;11.76;100.00;99440.22;5001126;28;859;-81
2023/12/11 07:53:06;;;;;;;;;;;;;;;11.85;100.00;99441.13;5015022;28;934;-81
2023/12/11 07:55:34;;;;;;;;;;;;;;;11.85;100.00;99441.94;5014986;28;1238;-81
2023/12/11 07:58:00;;;;;;;;;;;;;;;11.84;100.00;99447.50;5000953;28;876;-81
2023/12/11 08:00:26;;;;;;;;;;;;;;;11.90;100.00;99444.16;5000333;28;828;-81
2023/12/11 08:02:52;;;;;;;;;;;;;;;11.91;100.00;99443.16;5000576;28;1890;-81
2023/12/11 08:05:18;;;;;;;;;;;;;;;11.90;100.00;99441.47;5000565;28;1280;-82
2023/12/11 08:07:44;;;;;;;;;;;;;;;11.91;100.00;99433.25;5000446;28;830;-81
2023/12/11 08:10:10;;;;;;;;;;;;;;;11.93;100.00;99441.13;4999171;28;761;-81
2023/12/11 08:12:36;;;;;;;;;;;;;;;11.97;100.00;99437.09;5001380;28;686;-81
2023/12/11 08:15:03;;;;;;;;;;;;;;;11.98;100.00;99434.22;4999795;28;1190;-81
2023/12/11 08:17:29;;;;;;;;;;;;;;;12.01;100.00;99443.84;5000442;28;901;-81
2023/12/11 08:19:55;;;;;;;;;;;;;;;11.99;100.00;99446.66;5015352;28;817;-81
2023/12/11 08:22:22;;;;;;;;;;;;;;;11.93;100.00;99446.50;5015528;28;1932;-81
2023/12/11 08:24:48;;;;;;;;;;;;;;;11.92;100.00;99442.13;4999642;28;911;-81
2023/12/11 08:27:14;;;;;;;;;;;;;;;11.97;100.00;99450.53;4999911;28;821;-81
2023/12/11 08:29:40;;;;;;;;;;;;;;;12.01;100.00;99433.91;4998935;28;874;-81
2023/12/11 08:32:06;;;;;;;;;;;;;;;12.05;100.00;99446.00;5000540;28;879;-81
2023/12/11 08:34:32;;;;;;;;;;;;;;;12.01;100.00;99443.84;4999821;28;796;-81
2023/12/11 08:36:58;;;;;;;;;;;;;;;11.99;100.00;99433.22;5000610;28;1198;-81
2023/12/11 08:39:24;;;;;;;;;;;;;;;11.97;100.00;99437.94;5015123;28;775;-81
2023/12/11 08:41:50;;;;;;;;;;;;;;;11.99;100.00;99438.59;4999975;28;1959;-82
2023/12/11 08:44:16;;;;;;;;;;;;;;;12.04;100.00;99436.25;5014647;28;805;-81
2023/12/11 08:46:43;;;;;;;;;;;;;;;12.02;100.00;99440.13;5013833;28;1181;-81
2023/12/11 08:49:10;;;;;;;;;;;;;;;11.95;100.00;99426.50;4998424;28;834;-81
2023/12/11 08:51:36;;;;;;;;;;;;;;;11.97;100.00;99437.09;5014646;28;798;-81
2023/12/11 08:54:02;;;;;;;;;;;;;;;11.99;100.00;99435.06;4999811;28;939;-81
2023/12/11 08:56:28;;;;;;;;;;;;;;;12.02;100.00;99443.66;4997855;28;1198;-81
2023/12/11 08:58:54;;;;;;;;;;;;;;;11.94;100.00;99446.34;4999812;28;809;-81
2023/12/11 09:01:20;;;;;;;;;;;;;;;11.97;100.00;99440.63;5013763;28;1890;-81
2023/12/11 09:03:46;;;;;;;;;;;;;;;11.97;100.00;99435.25;4999203;28;771;-81
2023/12/11 09:06:15;;;;;;;;;;;;;;;11.95;100.00;99437.25;5013700;28;1268;-81
2023/12/11 09:08:42;;;;;;;;;;;;;;;11.97;100.00;99434.41;5013987;28;818;-81
2023/12/11 09:11:08;;;;;;;;;;;;;;;11.90;100.00;99433.41;5013989;28;873;-81
2023/12/11 09:13:35;;;;;;;;;;;;;;;11.96;100.00;99432.72;4999486;28;728;-81
2023/12/11 09:16:01;;;;;;;;;;;;;;;11.94;100.00;99430.22;4998923;28;1257;-81
2023/12/11 09:18:27;;;;;;;;;;;;;;;11.95;100.00;99439.94;5014768;28;789;-81
2023/12/11 09:20:53;;;;;;;;;;;;;;;11.97;100.00;99437.94;5014127;28;875;-81
2023/12/11 09:23:19;;;;;;;;;;;;;;;11.98;100.00;99433.41;4999054;28;1890;-81
2023/12/11 09:25:45;;;;;;;;;;;;;;;12.01;100.00;99438.47;4998064;28;1197;-81
2023/12/11 09:28:11;;;;;;;;;;;;;;;11.98;100.00;99442.28;4998841;28;606;-81
2023/12/11 09:30:37;;;;;;;;;;;;;;;12.00;100.00;99452.91;5013708;28;854;-81
2023/12/11 09:33:03;;;;;;;;;;;;;;;11.97;100.00;99445.16;4999399;28;690;-81
2023/12/11 09:35:29;;;;;;;;;;;;;;;12.02;100.00;99442.81;4998502;28;1202;-81
2023/12/11 09:37:55;;;;;;;;;;;;;;;12.06;100.00;99447.69;4997767;28;1012;-81
2023/12/11 09:40:21;;;;;;;;;;;;;;;12.04;100.00;99452.38;5013642;28;817;-81
2023/12/11 09:42:50;;;;;;;;;;;;;;;12.08;100.00;99452.88;4997453;28;1907;-81
2023/12/11 09:45:21;;;;;;;;;;;;;;;12.09;100.00;99448.34;4998313;28;1277;-81
2023/12/11 09:47:50;;;;;;;;;;;;;;;12.07;100.00;99453.91;5013692;28;796;-81
2023/12/11 09:50:18;;;;;;;;;;;;;;;12.06;100.00;99452.22;5013723;28;779;-81
2023/12/11 09:52:44;;;;;;;;;;;;;;;12.10;100.00;99450.91;5014072;28;857;-82
2023/12/11 09:55:10;;;;;;;;;;;;;;;12.09;100.00;99453.72;4996511;28;1284;-81
2023/12/11 09:57:41;;;;;;;;;;;;;;;12.14;100.00;99452.22;4999694;28;808;-81
2023/12/11 10:00:09;;;;;;;;;;;;;;;12.16;100.00;99452.88;4997620;28;897;-82
2023/12/11 10:02:39;;;;;;;;;;;;;;;12.19;100.00;99449.03;5013627;28;1879;-81
2023/12/11 10:05:09;;;;;;;;;;;;;;;12.17;100.00;99451.88;4998435;28;1170;-82
2023/12/11 10:07:39;;;;;;;;;;;;;;;12.18;100.00;99453.56;4998902;28;882;-82
2023/12/11 10:10:27;;;;;;;;;;;;;;;12.17;100.00;99462.63;4997645;28;865;-81
2023/12/11 10:12:54;;;;;;;;;;;;;;;12.18;100.00;99458.09;5014109;28;815;-82
2023/12/11 10:15:22;;;;;;;;;;;;;;;12.16;100.00;99457.44;4998987;28;1169;-82
2023/12/11 10:18:02;;;;;;;;;;;;;;;12.15;100.00;99463.81;5013410;28;834;-82
2023/12/11 10:20:28;;;;;;;;;;;;;;;12.11;100.00;99457.94;4999630;28;793;-82
2023/12/11 10:22:54;;;;;;;;;;;;;;;12.11;100.00;99455.25;4999436;28;1894;-82
2023/12/11 10:25:27;;;;;;;;;;;;;;;12.12;100.00;99462.31;4997067;28;1197;-81
2023/12/11 10:28:04;;;;;;;;;;;;;;;12.12;100.00;99462.31;4997242;28;912;-82
2023/12/11 10:30:30;;;;;;;;;;;;;;;12.11;100.00;99466.00;4999164;28;740;-81
2023/12/11 10:33:02;;;;;;;;;;;;;;;12.11;100.00;99465.16;4999127;28;882;-81
2023/12/11 10:35:28;;;;;;;;;;;;;;;12.02;100.00;99469.69;5012740;28;1273;-81
2023/12/11 10:38:01;;;;;;;;;;;;;;;12.05;100.00;99467.50;4998347;28;875;-81
2023/12/11 10:40:41;;;;;;;;;;;;;;;12.06;100.00;99468.34;4998990;28;718;-81
2023/12/11 10:43:08;;;;;;;;;;;;;;;12.08;100.00;99469.00;4998860;28;1951;-81
2023/12/11 10:45:34;;;;;;;;;;;;;;;12.07;100.00;99483.47;5013215;28;1245;-82
2023/12/11 10:48:01;;;;;;;;;;;;;;;12.12;100.00;99481.13;4999543;28;808;-81
2023/12/11 10:50:27;;;;;;;;;;;;;;;12.12;100.00;99475.75;5013389;28;817;-81
2023/12/11 10:52:53;;;;;;;;;;;;;;;12.15;100.00;99485.31;4999513;28;859;-81
2023/12/11 10:55:20;;;;;;;;;;;;;;;12.11;100.00;99476.75;5012519;28;1186;-81
2023/12/11 10:57:46;;;;;;;;;;;;;;;12.14;100.00;99489.03;4998995;28;829;-81
2023/12/11 11:00:13;;;;;;;;;;;;;;;12.12;100.00;99483.81;4998339;28;793;-82
2023/12/11 11:02:50;;;;;;;;;;;;;;;11.94;100.00;99492.03;4998812;28;1926;-81
2023/12/11 11:05:18;;;;;;;;;;;;;;;12.05;100.00;99486.31;5012998;28;1248;-82
2023/12/11 11:08:02;;;;;;;;;;;;;;;11.95;100.00;99490.16;5013495;28;890;-81
2023/12/11 11:10:37;;;;;;;;;;;;;;;12.01;100.00;99492.22;4998786;28;536;-81
2023/12/11 11:13:08;;;;;;;;;;;;;;;12.07;100.00;99494.22;5013249;28;866;-81
2023/12/11 11:15:34;;;;;;;;;;;;;;;12.08;100.00;99498.56;5012894;28;1221;-81
2023/12/11 11:18:02;;;;;;;;;;;;;;;12.12;100.00;99507.16;5014143;28;903;-81
2023/12/11 11:20:30;;;;;;;;;;;;;;;12.13;100.00;99516.91;4996451;28;840;-82
2023/12/11 11:23:14;;;;;;;;;;;;;;;11.98;100.00;99516.69;5012583;28;1953;-81
2023/12/11 11:25:41;;;;;;;;;;;;;;;12.10;100.00;99522.63;4997590;28;1295;-81
2023/12/11 11:28:40;;;;;;;;;;;;;;;11.86;100.00;99526.94;4999659;28;573;-81
2023/12/11 11:31:08;;;;;;;;;;;;;;;11.98;100.00;99538.19;5000762;28;818;-81
2023/12/11 11:33:52;;;;;;;;;;;;;;;12.01;100.00;99538.72;5001882;28;1064;-81
2023/12/11 11:36:20;;;;;;;;;;;;;;;12.13;100.00;99538.41;4999803;28;1316;-81
2023/12/11 11:38:57;;;;;;;;;;;;;;;12.18;100.00;99544.13;5016125;28;904;-81
2023/12/11 11:41:29;;;;;;;;;;;;;;;12.12;100.00;99556.41;5002180;28;565;-81
2023/12/11 11:44:04;;;;;;;;;;;;;;;12.10;100.00;99562.94;5016009;28;1871;-81
2023/12/11 11:46:54;;;;;;;;;;;;;;;12.09;100.00;99561.25;5001264;28;1189;-81
2023/12/11 11:49:40;;;;;;;;;;;;;;;12.16;100.00;99562.28;5001878;28;918;-81
2023/12/11 11:52:08;;;;;;;;;;;;;;;12.10;100.00;99571.84;5001681;28;880;-81
2023/12/11 11:54:38;;;;;;;;;;;;;;;12.15;100.00;99580.25;5001269;28;899;-81
2023/12/11 11:57:06;;;;;;;;;;;;;;;12.20;100.00;99580.63;5016181;28;1241;-81
2023/12/11 11:59:41;;;;;;;;;;;;;;;12.27;100.00;99592.38;5002165;28;865;-82
2023/12/11 12:02:07;;;;;;;;;;;;;;;12.29;100.00;99597.56;5001713;28;1951;-81
2023/12/11 12:04:34;;;;;;;;;;;;;;;12.19;100.00;99592.38;5001144;28;934;-81
2023/12/11 12:07:03;;;;;;;;;;;;;;;12.12;100.00;99602.09;5000815;28;1221;-82
2023/12/11 12:09:30;;;;;;;;;;;;;;;12.16;100.00;99599.91;5002901;28;678;-82
2023/12/11 12:11:57;;;;;;;;;;;;;;;12.10;100.00;99611.34;5001326;28;907;-81
2023/12/11 12:14:27;;;;;;;;;;;;;;;12.19;100.00;99615.69;5001361;28;785;-82
2023/12/11 12:16:53;;;;;;;;;;;;;;;12.04;100.00;99626.25;5000082;28;1416;-81
2023/12/11 12:19:31;;;;;;;;;;;;;;;12.04;100.00;99623.56;5015945;28;941;-81
2023/12/11 12:21:58;;;;;;;;;;;;;;;12.10;100.00;99632.84;5002115;28;1890;-81
2023/12/11 12:24:25;;;;;;;;;;;;;;;12.15;100.00;99642.06;5001089;28;800;-81
2023/12/11 12:26:56;;;;;;;;;;;;;;;12.15;100.00;99635.84;5001285;28;1201;-82
2023/12/11 12:29:22;;;;;;;;;;;;;;;12.13;100.00;99641.41;5016238;28;854;-81
2023/12/11 12:31:49;;;;;;;;;;;;;;;12.08;100.00;99651.78;5001883;28;796;-81
2023/12/11 12:34:17;;;;;;;;;;;;;;;12.16;100.00;99659.88;5000994;28;828;-81
2023/12/11 12:36:43;;;;;;;;;;;;;;;12.11;100.00;99661.41;5015289;28;1245;-81
2023/12/11 12:39:17;;;;;;;;;;;;;;;12.16;100.00;99670.63;5000178;28;729;-81
2023/12/11 12:41:43;;;;;;;;;;;;;;;12.06;100.00;99672.63;4999539;28;903;-81
2023/12/11 12:44:09;;;;;;;;;;;;;;;12.07;100.00;99679.66;5000936;28;1867;-81
2023/12/11 12:46:42;;;;;;;;;;;;;;;12.05;100.00;99677.16;5000441;28;1269;-81
2023/12/11 12:49:14;;;;;;;;;;;;;;;12.11;100.00;99688.28;5000278;28;883;-81
2023/12/11 12:51:47;;;;;;;;;;;;;;;12.06;100.00;99697.66;4998903;28;808;-81
2023/12/11 12:54:15;;;;;;;;;;;;;;;12.18;100.00;99703.56;5000732;28;1080;-81